RYR67UB EGSS-EDJA
Flight info
| Callsign | RYR67UB |
|---|---|
| Flight time | 1h 25m |
| Altitude | 37000 |
| Route | CLN M84 KONAN UL607 MATUG DCT AMASI DCT BOMBI/N0431F270 T104 DKB/N0405F230 Z818 ELVAG Z76 ABGAS Z79 LUPOL LUPOL1C |
| Aircraft | B738/M-SDE2E3FGHIRWXY/LB1 |
Departure
| Time | 2026-05-09 10:13 |
|---|---|
| Airport | London Stansted Airport (EGSS) |
Arrival
| Time | 2026-05-09 11:39 |
|---|---|
| Airport | Memmingen Allgau Airport (EDJA) |
| Time | Latitude | Longitude | Altitude | Speed | Heading |
|---|---|---|---|---|---|
| 2026-05-09 09:47 | 51.89217 | 0.25657 | 358 ft | 0 kts | 222° |
| 2026-05-09 10:00 | 51.89214 | 0.25664 | 351 ft | 2 kts | 254° |
| 2026-05-09 10:00 | 51.89217 | 0.25655 | 351 ft | 3 kts | 285° |
| 2026-05-09 10:00 | 51.89213 | 0.25681 | 360 ft | 3 kts | 273° |
| 2026-05-09 10:00 | 51.89215 | 0.25709 | 356 ft | 3 kts | 229° |
| 2026-05-09 10:01 | 51.89225 | 0.25720 | 361 ft | 3 kts | 271° |
| 2026-05-09 10:01 | 51.89230 | 0.25711 | 361 ft | 1 kts | 313° |
| 2026-05-09 10:01 | 51.89220 | 0.25730 | 361 ft | 3 kts | 295° |
| 2026-05-09 10:01 | 51.89216 | 0.25759 | 359 ft | 3 kts | 267° |
| 2026-05-09 10:02 | 51.89216 | 0.25785 | 358 ft | 2 kts | 306° |
| 2026-05-09 10:02 | 51.89211 | 0.25795 | 357 ft | 1 kts | 313° |
| 2026-05-09 10:02 | 51.89211 | 0.25796 | 357 ft | 0 kts | 313° |
| 2026-05-09 10:04 | 51.89213 | 0.25791 | 357 ft | 3 kts | 313° |
| 2026-05-09 10:05 | 51.89252 | 0.25723 | 360 ft | 9 kts | 310° |
| 2026-05-09 10:05 | 51.89301 | 0.25631 | 351 ft | 11 kts | 313° |
| 2026-05-09 10:05 | 51.89314 | 0.25607 | 359 ft | 0 kts | 312° |
| 2026-05-09 10:05 | 51.89316 | 0.25605 | 358 ft | 2 kts | 312° |
| 2026-05-09 10:06 | 51.89338 | 0.25543 | 353 ft | 11 kts | 285° |
| 2026-05-09 10:06 | 51.89284 | 0.25434 | 356 ft | 17 kts | 217° |
| 2026-05-09 10:06 | 51.89176 | 0.25281 | 351 ft | 25 kts | 221° |
| 2026-05-09 10:06 | 51.89036 | 0.25071 | 354 ft | 28 kts | 223° |
| 2026-05-09 10:07 | 51.88900 | 0.24867 | 355 ft | 23 kts | 223° |
| 2026-05-09 10:07 | 51.88796 | 0.24709 | 351 ft | 5 kts | 223° |
| 2026-05-09 10:07 | 51.88768 | 0.24665 | 344 ft | 9 kts | 226° |
| 2026-05-09 10:07 | 51.88713 | 0.24581 | 350 ft | 12 kts | 221° |
| 2026-05-09 10:08 | 51.88636 | 0.24467 | 346 ft | 18 kts | 223° |
| 2026-05-09 10:08 | 51.88528 | 0.24305 | 350 ft | 24 kts | 223° |
| 2026-05-09 10:08 | 51.88391 | 0.24096 | 340 ft | 30 kts | 223° |
| 2026-05-09 10:08 | 51.88227 | 0.23847 | 334 ft | 34 kts | 223° |
| 2026-05-09 10:09 | 51.88045 | 0.23574 | 333 ft | 36 kts | 223° |
| 2026-05-09 10:09 | 51.87871 | 0.23315 | 334 ft | 22 kts | 222° |
| 2026-05-09 10:09 | 51.87764 | 0.23154 | 332 ft | 17 kts | 229° |
| 2026-05-09 10:09 | 51.87749 | 0.23028 | 334 ft | 9 kts | 281° |
| 2026-05-09 10:10 | 51.87775 | 0.22931 | 335 ft | 9 kts | 274° |
| 2026-05-09 10:10 | 51.87746 | 0.22839 | 336 ft | 9 kts | 227° |
| 2026-05-09 10:10 | 51.87701 | 0.22769 | 336 ft | 9 kts | 223° |
| 2026-05-09 10:10 | 51.87649 | 0.22690 | 333 ft | 12 kts | 223° |
| 2026-05-09 10:11 | 51.87572 | 0.22574 | 332 ft | 19 kts | 223° |
| 2026-05-09 10:11 | 51.87465 | 0.22414 | 328 ft | 10 kts | 223° |
| 2026-05-09 10:11 | 51.87410 | 0.22325 | 327 ft | 12 kts | 238° |
| 2026-05-09 10:11 | 51.87409 | 0.22197 | 322 ft | 12 kts | 297° |
| 2026-05-09 10:12 | 51.87472 | 0.22082 | 321 ft | 15 kts | 314° |
| 2026-05-09 10:12 | 51.87522 | 0.22033 | 322 ft | 7 kts | 6° |
| 2026-05-09 10:12 | 51.87553 | 0.22063 | 322 ft | 0 kts | 42° |
| 2026-05-09 10:13 | 51.87570 | 0.22088 | 322 ft | 23 kts | 42° |
| 2026-05-09 10:13 | 51.87927 | 0.22631 | 335 ft | 115 kts | 40° |
| 2026-05-09 10:13 | 51.88696 | 0.23756 | 534 ft | 174 kts | 45° |
| 2026-05-09 10:13 | 51.89662 | 0.25245 | 1241 ft | 206 kts | 45° |
| 2026-05-09 10:14 | 51.90721 | 0.26857 | 2269 ft | 209 kts | 46° |
| 2026-05-09 10:14 | 51.91572 | 0.28796 | 3164 ft | 219 kts | 70° |
| 2026-05-09 10:14 | 51.91649 | 0.31233 | 3828 ft | 227 kts | 104° |
| 2026-05-09 10:14 | 51.91014 | 0.33791 | 3985 ft | 253 kts | 114° |
| 2026-05-09 10:15 | 51.90257 | 0.36370 | 4000 ft | 254 kts | 114° |
| 2026-05-09 10:15 | 51.89500 | 0.38969 | 4082 ft | 258 kts | 114° |
| 2026-05-09 10:15 | 51.88732 | 0.41595 | 4947 ft | 258 kts | 115° |
| 2026-05-09 10:15 | 51.87958 | 0.44204 | 5679 ft | 258 kts | 115° |
| 2026-05-09 10:16 | 51.87187 | 0.46815 | 6000 ft | 263 kts | 115° |
| 2026-05-09 10:16 | 51.86396 | 0.49498 | 5989 ft | 269 kts | 115° |
| 2026-05-09 10:16 | 51.85584 | 0.52258 | 5990 ft | 267 kts | 115° |
| 2026-05-09 10:16 | 51.84802 | 0.54917 | 5992 ft | 265 kts | 114° |
| 2026-05-09 10:17 | 51.84014 | 0.57595 | 5995 ft | 262 kts | 114° |
| 2026-05-09 10:17 | 51.83325 | 0.60316 | 5969 ft | 261 kts | 105° |
| 2026-05-09 10:17 | 51.82991 | 0.63196 | 5991 ft | 263 kts | 95° |
| 2026-05-09 10:17 | 51.82947 | 0.66170 | 5983 ft | 266 kts | 87° |
| 2026-05-09 10:18 | 51.83078 | 0.69156 | 5976 ft | 265 kts | 85° |
| 2026-05-09 10:18 | 51.83237 | 0.72109 | 5965 ft | 263 kts | 84° |
| 2026-05-09 10:18 | 51.83379 | 0.75051 | 5962 ft | 262 kts | 86° |
| 2026-05-09 10:18 | 51.83495 | 0.77978 | 5970 ft | 261 kts | 86° |
| 2026-05-09 10:19 | 51.83606 | 0.80917 | 5988 ft | 263 kts | 86° |
| 2026-05-09 10:19 | 51.83718 | 0.83883 | 5990 ft | 265 kts | 86° |
| 2026-05-09 10:19 | 51.83829 | 0.86868 | 5983 ft | 266 kts | 86° |
| 2026-05-09 10:19 | 51.83941 | 0.89862 | 5974 ft | 266 kts | 86° |
| 2026-05-09 10:20 | 51.84052 | 0.92846 | 5988 ft | 266 kts | 86° |
| 2026-05-09 10:20 | 51.84163 | 0.95828 | 5992 ft | 266 kts | 86° |
| 2026-05-09 10:20 | 51.84273 | 0.98811 | 5980 ft | 266 kts | 85° |
| 2026-05-09 10:20 | 51.84383 | 1.01793 | 5986 ft | 265 kts | 86° |
| 2026-05-09 10:21 | 51.84491 | 1.04766 | 5991 ft | 265 kts | 86° |
| 2026-05-09 10:21 | 51.84598 | 1.07748 | 6054 ft | 267 kts | 85° |
| 2026-05-09 10:21 | 51.84706 | 1.10775 | 6786 ft | 270 kts | 86° |
| 2026-05-09 10:21 | 51.84458 | 1.13795 | 7689 ft | 277 kts | 112° |
| 2026-05-09 10:22 | 51.83343 | 1.16342 | 8645 ft | 281 kts | 138° |
| 2026-05-09 10:22 | 51.81754 | 1.18204 | 9591 ft | 285 kts | 146° |
| 2026-05-09 10:22 | 51.80068 | 1.19962 | 10414 ft | 292 kts | 147° |
| 2026-05-09 10:22 | 51.78287 | 1.21799 | 10753 ft | 317 kts | 148° |
| 2026-05-09 10:23 | 51.76409 | 1.23760 | 10966 ft | 343 kts | 147° |
| 2026-05-09 10:23 | 51.74359 | 1.25921 | 11418 ft | 358 kts | 147° |
| 2026-05-09 10:23 | 51.72233 | 1.28173 | 12201 ft | 363 kts | 147° |
| 2026-05-09 10:23 | 51.70118 | 1.30415 | 13108 ft | 364 kts | 147° |
| 2026-05-09 10:24 | 51.67999 | 1.32658 | 13965 ft | 367 kts | 148° |
| 2026-05-09 10:24 | 51.65783 | 1.34740 | 14681 ft | 370 kts | 157° |
| 2026-05-09 10:24 | 51.63382 | 1.36041 | 15386 ft | 371 kts | 168° |
| 2026-05-09 10:24 | 51.60829 | 1.36602 | 16108 ft | 374 kts | 178° |
| 2026-05-09 10:25 | 51.58220 | 1.36727 | 16838 ft | 378 kts | 179° |
| 2026-05-09 10:25 | 51.55578 | 1.36815 | 17538 ft | 381 kts | 180° |
| 2026-05-09 10:25 | 51.52925 | 1.36925 | 18275 ft | 384 kts | 179° |
| 2026-05-09 10:25 | 51.50278 | 1.37066 | 18900 ft | 386 kts | 179° |
| 2026-05-09 10:26 | 51.47568 | 1.37224 | 19439 ft | 392 kts | 178° |
| 2026-05-09 10:26 | 51.44872 | 1.37948 | 20000 ft | 396 kts | 160° |
| 2026-05-09 10:26 | 51.42458 | 1.40066 | 20712 ft | 398 kts | 144° |
| 2026-05-09 10:26 | 51.40528 | 1.43220 | 21310 ft | 403 kts | 130° |
| 2026-05-09 10:27 | 51.38817 | 1.46790 | 21864 ft | 407 kts | 129° |
| 2026-05-09 10:27 | 51.37104 | 1.50427 | 22388 ft | 411 kts | 129° |
| 2026-05-09 10:27 | 51.35378 | 1.54090 | 22927 ft | 413 kts | 129° |
| 2026-05-09 10:27 | 51.33637 | 1.57753 | 23482 ft | 416 kts | 129° |
| 2026-05-09 10:28 | 51.31869 | 1.61442 | 23960 ft | 418 kts | 129° |
| 2026-05-09 10:28 | 51.30090 | 1.65130 | 24452 ft | 419 kts | 130° |
| 2026-05-09 10:28 | 51.28316 | 1.68791 | 24901 ft | 421 kts | 130° |
| 2026-05-09 10:28 | 51.26522 | 1.72483 | 25334 ft | 423 kts | 130° |
| 2026-05-09 10:29 | 51.24710 | 1.76206 | 25761 ft | 425 kts | 130° |
| 2026-05-09 10:29 | 51.22938 | 1.79842 | 26159 ft | 427 kts | 130° |
| 2026-05-09 10:29 | 51.21083 | 1.83646 | 26569 ft | 429 kts | 130° |
| 2026-05-09 10:29 | 51.19266 | 1.87367 | 26965 ft | 431 kts | 130° |
| 2026-05-09 10:30 | 51.17425 | 1.91131 | 27307 ft | 433 kts | 130° |
| 2026-05-09 10:30 | 51.15572 | 1.94970 | 27580 ft | 439 kts | 127° |
| 2026-05-09 10:30 | 51.14065 | 1.99230 | 27928 ft | 445 kts | 116° |
| 2026-05-09 10:30 | 51.13058 | 2.03706 | 28315 ft | 449 kts | 108° |
| 2026-05-09 10:31 | 51.12477 | 2.08610 | 28645 ft | 456 kts | 99° |
| 2026-05-09 10:31 | 51.12206 | 2.13663 | 28957 ft | 459 kts | 97° |
| 2026-05-09 10:31 | 51.11978 | 2.18750 | 29264 ft | 462 kts | 97° |
| 2026-05-09 10:31 | 51.11747 | 2.23851 | 29587 ft | 463 kts | 97° |
| 2026-05-09 10:32 | 51.11499 | 2.28968 | 30006 ft | 463 kts | 98° |
| 2026-05-09 10:32 | 51.11234 | 2.34049 | 30465 ft | 460 kts | 98° |
| 2026-05-09 10:32 | 51.10958 | 2.39108 | 30873 ft | 458 kts | 98° |
| 2026-05-09 10:32 | 51.10675 | 2.44164 | 31143 ft | 460 kts | 98° |
| 2026-05-09 10:33 | 51.10385 | 2.49245 | 31431 ft | 461 kts | 98° |
| 2026-05-09 10:33 | 51.10097 | 2.54309 | 31828 ft | 459 kts | 98° |
| 2026-05-09 10:33 | 51.09809 | 2.59355 | 32257 ft | 457 kts | 98° |
| 2026-05-09 10:33 | 51.09501 | 2.64375 | 32637 ft | 455 kts | 100° |
| 2026-05-09 10:34 | 51.08882 | 2.69277 | 32957 ft | 452 kts | 108° |
| 2026-05-09 10:34 | 51.07107 | 2.78827 | 33691 ft | 449 kts | 110° |
| 2026-05-09 10:34 | 51.06199 | 2.83573 | 34064 ft | 448 kts | 109° |
| 2026-05-09 10:35 | 51.05301 | 2.88320 | 34286 ft | 450 kts | 109° |
| 2026-05-09 10:35 | 51.04409 | 2.93095 | 34464 ft | 452 kts | 109° |
| 2026-05-09 10:35 | 51.03536 | 2.97820 | 34730 ft | 452 kts | 109° |
| 2026-05-09 10:35 | 51.02694 | 3.02406 | 35026 ft | 451 kts | 108° |
| 2026-05-09 10:36 | 51.01814 | 3.07199 | 35290 ft | 451 kts | 108° |
| 2026-05-09 10:36 | 51.00934 | 3.11981 | 35513 ft | 452 kts | 109° |
| 2026-05-09 10:36 | 51.00050 | 3.16773 | 35744 ft | 452 kts | 109° |
| 2026-05-09 10:36 | 50.99164 | 3.21560 | 36014 ft | 452 kts | 109° |
| 2026-05-09 10:37 | 50.98278 | 3.26335 | 36263 ft | 452 kts | 109° |
| 2026-05-09 10:37 | 50.97388 | 3.31116 | 36463 ft | 452 kts | 108° |
| 2026-05-09 10:37 | 50.96493 | 3.35912 | 36667 ft | 454 kts | 108° |
| 2026-05-09 10:37 | 50.95601 | 3.40676 | 36880 ft | 454 kts | 108° |
| 2026-05-09 10:38 | 50.94702 | 3.45471 | 37110 ft | 454 kts | 108° |
| 2026-05-09 10:38 | 50.93795 | 3.50294 | 37083 ft | 458 kts | 108° |
| 2026-05-09 10:38 | 50.91983 | 3.59900 | 37089 ft | 457 kts | 108° |
| 2026-05-09 10:39 | 50.90146 | 3.69543 | 37084 ft | 451 kts | 109° |
| 2026-05-09 10:39 | 50.88312 | 3.79033 | 37091 ft | 450 kts | 108° |
| 2026-05-09 10:40 | 50.86789 | 3.86877 | 37100 ft | 449 kts | 108° |
| 2026-05-09 10:40 | 50.84947 | 3.96336 | 37105 ft | 449 kts | 108° |
| 2026-05-09 10:41 | 50.83145 | 4.05552 | 37111 ft | 450 kts | 109° |
| 2026-05-09 10:41 | 50.81287 | 4.15014 | 37119 ft | 451 kts | 109° |
| 2026-05-09 10:42 | 50.79411 | 4.24514 | 37115 ft | 453 kts | 109° |
| 2026-05-09 10:42 | 50.77525 | 4.34023 | 37127 ft | 454 kts | 109° |
| 2026-05-09 10:43 | 50.75639 | 4.43485 | 37123 ft | 455 kts | 109° |
| 2026-05-09 10:43 | 50.73732 | 4.53014 | 37124 ft | 456 kts | 109° |
| 2026-05-09 10:44 | 50.71819 | 4.62555 | 37118 ft | 456 kts | 109° |
| 2026-05-09 10:44 | 50.69965 | 4.72130 | 37096 ft | 456 kts | 109° |
| 2026-05-09 10:46 | 50.65295 | 4.96038 | 37103 ft | 456 kts | 110° |
| 2026-05-09 10:46 | 50.63375 | 5.05358 | 37106 ft | 456 kts | 110° |
| 2026-05-09 10:47 | 50.61404 | 5.14854 | 37092 ft | 456 kts | 109° |
| 2026-05-09 10:47 | 50.59434 | 5.24348 | 37106 ft | 456 kts | 109° |
| 2026-05-09 10:48 | 50.57474 | 5.33772 | 37108 ft | 456 kts | 109° |
| 2026-05-09 10:48 | 50.55490 | 5.43262 | 37099 ft | 457 kts | 109° |
| 2026-05-09 10:49 | 50.53490 | 5.52798 | 37101 ft | 457 kts | 109° |
| 2026-05-09 10:49 | 50.51522 | 5.62166 | 37088 ft | 457 kts | 108° |
| 2026-05-09 10:50 | 50.50167 | 5.71966 | 37104 ft | 459 kts | 101° |
| 2026-05-09 10:50 | 50.48987 | 5.81828 | 37091 ft | 459 kts | 102° |
| 2026-05-09 10:51 | 50.47705 | 5.91650 | 37095 ft | 460 kts | 103° |
| 2026-05-09 10:51 | 50.46428 | 6.01274 | 37095 ft | 460 kts | 103° |
| 2026-05-09 10:52 | 50.44680 | 6.10898 | 36966 ft | 462 kts | 114° |
| 2026-05-09 10:52 | 50.43353 | 6.15513 | 36677 ft | 462 kts | 116° |
| 2026-05-09 10:52 | 50.41984 | 6.20058 | 36418 ft | 458 kts | 116° |
| 2026-05-09 10:52 | 50.40616 | 6.24555 | 36178 ft | 457 kts | 116° |
| 2026-05-09 10:53 | 50.39277 | 6.28986 | 36110 ft | 456 kts | 116° |
| 2026-05-09 10:53 | 50.37930 | 6.33486 | 36088 ft | 457 kts | 116° |
| 2026-05-09 10:55 | 50.28373 | 6.65890 | 36100 ft | 461 kts | 115° |
| 2026-05-09 10:55 | 50.25670 | 6.75001 | 36106 ft | 462 kts | 115° |
| 2026-05-09 10:56 | 50.22959 | 6.84101 | 36123 ft | 462 kts | 115° |
| 2026-05-09 10:56 | 50.20239 | 6.93198 | 36120 ft | 463 kts | 115° |
| 2026-05-09 10:57 | 50.17558 | 7.02132 | 36136 ft | 463 kts | 115° |
| 2026-05-09 10:57 | 50.15264 | 7.09749 | 36141 ft | 464 kts | 115° |
| 2026-05-09 10:58 | 50.12063 | 7.20338 | 36130 ft | 465 kts | 115° |
| 2026-05-09 10:58 | 50.09290 | 7.29473 | 36123 ft | 465 kts | 115° |
| 2026-05-09 10:59 | 50.06517 | 7.38579 | 36124 ft | 466 kts | 115° |
| 2026-05-09 10:59 | 50.03737 | 7.47671 | 36124 ft | 466 kts | 115° |
| 2026-05-09 11:00 | 50.00949 | 7.56754 | 36113 ft | 466 kts | 115° |
| 2026-05-09 11:00 | 49.98155 | 7.65823 | 36104 ft | 466 kts | 115° |
| 2026-05-09 11:01 | 49.95325 | 7.74979 | 36120 ft | 466 kts | 115° |
| 2026-05-09 11:01 | 49.92525 | 7.84002 | 36099 ft | 467 kts | 115° |
| 2026-05-09 11:02 | 49.89047 | 7.92542 | 36116 ft | 467 kts | 133° |
| 2026-05-09 11:02 | 49.84170 | 7.99063 | 36112 ft | 467 kts | 142° |
| 2026-05-09 11:03 | 49.79967 | 8.04117 | 36099 ft | 468 kts | 142° |
| 2026-05-09 11:03 | 49.74840 | 8.10318 | 36103 ft | 468 kts | 142° |
| 2026-05-09 11:04 | 49.69718 | 8.16576 | 36093 ft | 469 kts | 142° |
| 2026-05-09 11:04 | 49.67160 | 8.19709 | 35946 ft | 473 kts | 142° |
| 2026-05-09 11:04 | 49.64571 | 8.22879 | 35682 ft | 474 kts | 141° |
| 2026-05-09 11:04 | 49.61998 | 8.26027 | 35434 ft | 471 kts | 141° |
| 2026-05-09 11:05 | 49.59433 | 8.29159 | 35188 ft | 470 kts | 141° |
| 2026-05-09 11:05 | 49.56759 | 8.32419 | 34936 ft | 470 kts | 141° |
| 2026-05-09 11:05 | 49.54308 | 8.35403 | 34708 ft | 470 kts | 141° |
| 2026-05-09 11:05 | 49.51743 | 8.38520 | 34471 ft | 469 kts | 141° |
| 2026-05-09 11:06 | 49.49179 | 8.41632 | 34233 ft | 469 kts | 141° |
| 2026-05-09 11:06 | 49.46625 | 8.44728 | 34003 ft | 469 kts | 141° |
| 2026-05-09 11:06 | 49.44067 | 8.47824 | 33733 ft | 469 kts | 141° |
| 2026-05-09 11:06 | 49.41515 | 8.50909 | 33445 ft | 469 kts | 141° |
| 2026-05-09 11:07 | 49.38936 | 8.54023 | 33179 ft | 470 kts | 141° |
| 2026-05-09 11:07 | 49.36363 | 8.57124 | 32914 ft | 471 kts | 141° |
| 2026-05-09 11:07 | 49.33788 | 8.60223 | 32644 ft | 471 kts | 141° |
| 2026-05-09 11:07 | 49.31202 | 8.63332 | 32391 ft | 472 kts | 141° |
| 2026-05-09 11:08 | 49.28619 | 8.66433 | 32128 ft | 473 kts | 141° |
| 2026-05-09 11:08 | 49.26022 | 8.69546 | 31873 ft | 474 kts | 141° |
| 2026-05-09 11:08 | 49.23420 | 8.72662 | 31619 ft | 475 kts | 141° |
| 2026-05-09 11:08 | 49.20817 | 8.75774 | 31364 ft | 476 kts | 141° |
| 2026-05-09 11:09 | 49.18221 | 8.78873 | 31106 ft | 476 kts | 141° |
| 2026-05-09 11:09 | 49.15591 | 8.82008 | 30860 ft | 477 kts | 141° |
| 2026-05-09 11:09 | 49.12981 | 8.85116 | 30569 ft | 476 kts | 141° |
| 2026-05-09 11:09 | 49.10353 | 8.88240 | 29720 ft | 476 kts | 141° |
| 2026-05-09 11:10 | 49.07762 | 8.91316 | 29117 ft | 469 kts | 141° |
| 2026-05-09 11:10 | 49.05209 | 8.94343 | 28521 ft | 463 kts | 141° |
| 2026-05-09 11:10 | 49.02669 | 8.97350 | 27913 ft | 458 kts | 141° |
| 2026-05-09 11:10 | 49.00263 | 9.00195 | 27365 ft | 452 kts | 141° |
| 2026-05-09 11:11 | 48.97798 | 9.03107 | 26778 ft | 448 kts | 141° |
| 2026-05-09 11:11 | 48.95349 | 9.05996 | 26201 ft | 443 kts | 141° |
| 2026-05-09 11:11 | 48.92924 | 9.08853 | 25630 ft | 439 kts | 142° |
| 2026-05-09 11:11 | 48.90519 | 9.11684 | 25077 ft | 435 kts | 142° |
| 2026-05-09 11:12 | 48.88135 | 9.14486 | 24523 ft | 431 kts | 142° |
| 2026-05-09 11:12 | 48.85774 | 9.17257 | 23985 ft | 428 kts | 142° |
| 2026-05-09 11:12 | 48.83441 | 9.19992 | 23359 ft | 425 kts | 142° |
| 2026-05-09 11:12 | 48.81113 | 9.22718 | 22749 ft | 421 kts | 142° |
| 2026-05-09 11:13 | 48.78798 | 9.25426 | 22169 ft | 417 kts | 142° |
| 2026-05-09 11:13 | 48.76514 | 9.28094 | 21621 ft | 413 kts | 142° |
| 2026-05-09 11:13 | 48.74250 | 9.30736 | 21058 ft | 408 kts | 142° |
| 2026-05-09 11:13 | 48.72008 | 9.33349 | 20521 ft | 404 kts | 143° |
| 2026-05-09 11:14 | 48.69787 | 9.35934 | 19985 ft | 401 kts | 143° |
| 2026-05-09 11:14 | 48.67590 | 9.38490 | 19434 ft | 397 kts | 143° |
| 2026-05-09 11:14 | 48.65405 | 9.41027 | 18910 ft | 394 kts | 143° |
| 2026-05-09 11:14 | 48.63973 | 9.42690 | 18567 ft | 392 kts | 143° |
| 2026-05-09 11:15 | 48.61100 | 9.46019 | 18166 ft | 384 kts | 143° |
| 2026-05-09 11:15 | 48.58988 | 9.48464 | 18095 ft | 377 kts | 143° |
| 2026-05-09 11:15 | 48.56946 | 9.50827 | 18074 ft | 362 kts | 143° |
| 2026-05-09 11:15 | 48.54991 | 9.53087 | 18057 ft | 347 kts | 144° |
| 2026-05-09 11:16 | 48.53112 | 9.55257 | 18036 ft | 333 kts | 144° |
| 2026-05-09 11:16 | 48.51295 | 9.57352 | 17823 ft | 326 kts | 144° |
| 2026-05-09 11:16 | 48.49497 | 9.59422 | 17452 ft | 325 kts | 144° |
| 2026-05-09 11:16 | 48.47691 | 9.61499 | 16936 ft | 328 kts | 144° |
| 2026-05-09 11:17 | 48.45893 | 9.63563 | 16358 ft | 333 kts | 144° |
| 2026-05-09 11:17 | 48.43979 | 9.65759 | 15529 ft | 349 kts | 144° |
| 2026-05-09 11:17 | 48.42067 | 9.67953 | 15353 ft | 350 kts | 144° |
| 2026-05-09 11:17 | 48.40134 | 9.70170 | 15212 ft | 345 kts | 144° |
| 2026-05-09 11:18 | 48.38259 | 9.72320 | 15111 ft | 331 kts | 144° |
| 2026-05-09 11:18 | 48.36475 | 9.74364 | 15044 ft | 315 kts | 144° |
| 2026-05-09 11:18 | 48.34750 | 9.76338 | 14758 ft | 309 kts | 144° |
| 2026-05-09 11:18 | 48.33046 | 9.78284 | 14343 ft | 308 kts | 144° |
| 2026-05-09 11:19 | 48.31329 | 9.80242 | 13823 ft | 312 kts | 144° |
| 2026-05-09 11:19 | 48.29561 | 9.82257 | 12850 ft | 329 kts | 144° |
| 2026-05-09 11:19 | 48.27714 | 9.84363 | 12261 ft | 334 kts | 144° |
| 2026-05-09 11:19 | 48.25889 | 9.86442 | 12151 ft | 322 kts | 144° |
| 2026-05-09 11:20 | 48.24136 | 9.88436 | 12064 ft | 311 kts | 144° |
| 2026-05-09 11:20 | 48.22428 | 9.90315 | 11970 ft | 298 kts | 151° |
| 2026-05-09 11:20 | 48.20522 | 9.91297 | 11823 ft | 286 kts | 173° |
| 2026-05-09 11:20 | 48.18559 | 9.91602 | 11565 ft | 282 kts | 178° |
| 2026-05-09 11:21 | 48.16605 | 9.91812 | 11228 ft | 282 kts | 178° |
| 2026-05-09 11:21 | 48.14650 | 9.92016 | 10922 ft | 281 kts | 178° |
| 2026-05-09 11:21 | 48.12712 | 9.92227 | 10638 ft | 279 kts | 178° |
| 2026-05-09 11:21 | 48.10774 | 9.92450 | 10346 ft | 278 kts | 178° |
| 2026-05-09 11:22 | 48.08855 | 9.92677 | 10059 ft | 276 kts | 177° |
| 2026-05-09 11:22 | 48.06948 | 9.92907 | 9741 ft | 275 kts | 177° |
| 2026-05-09 11:22 | 48.05042 | 9.93139 | 9447 ft | 273 kts | 177° |
| 2026-05-09 11:22 | 48.03155 | 9.93369 | 9129 ft | 272 kts | 177° |
| 2026-05-09 11:23 | 48.01274 | 9.93599 | 8848 ft | 270 kts | 176° |
| 2026-05-09 11:23 | 47.99408 | 9.93829 | 8531 ft | 270 kts | 175° |
| 2026-05-09 11:23 | 47.97621 | 9.94640 | 8189 ft | 272 kts | 151° |
| 2026-05-09 11:23 | 47.96022 | 9.96109 | 8020 ft | 266 kts | 150° |
| 2026-05-09 11:24 | 47.94467 | 9.97515 | 7949 ft | 257 kts | 150° |
| 2026-05-09 11:24 | 47.92956 | 9.98867 | 7840 ft | 249 kts | 150° |
| 2026-05-09 11:24 | 47.91675 | 10.00377 | 7514 ft | 251 kts | 126° |
| 2026-05-09 11:24 | 47.91128 | 10.02813 | 7136 ft | 252 kts | 89° |
| 2026-05-09 11:25 | 47.91578 | 10.05320 | 6751 ft | 253 kts | 66° |
| 2026-05-09 11:25 | 47.92410 | 10.07646 | 6256 ft | 256 kts | 60° |
| 2026-05-09 11:25 | 47.93022 | 10.09155 | 5929 ft | 258 kts | 59° |
| 2026-05-09 11:26 | 47.95201 | 10.14642 | 4806 ft | 273 kts | 60° |
| 2026-05-09 11:26 | 47.96111 | 10.17158 | 4285 ft | 279 kts | 69° |
| 2026-05-09 11:26 | 47.96932 | 10.19765 | 4039 ft | 273 kts | 58° |
| 2026-05-09 11:26 | 47.97966 | 10.22105 | 3860 ft | 266 kts | 57° |
| 2026-05-09 11:27 | 47.98969 | 10.24342 | 3921 ft | 251 kts | 52° |
| 2026-05-09 11:27 | 48.00297 | 10.25859 | 4058 ft | 233 kts | 20° |
| 2026-05-09 11:27 | 48.01860 | 10.26048 | 4279 ft | 229 kts | 347° |
| 2026-05-09 11:27 | 48.03345 | 10.25180 | 4553 ft | 230 kts | 335° |
| 2026-05-09 11:28 | 48.04780 | 10.24150 | 4782 ft | 228 kts | 334° |
| 2026-05-09 11:28 | 48.06200 | 10.23123 | 4986 ft | 227 kts | 334° |
| 2026-05-09 11:28 | 48.07636 | 10.22084 | 4999 ft | 231 kts | 334° |
| 2026-05-09 11:28 | 48.09077 | 10.21038 | 5002 ft | 230 kts | 334° |
| 2026-05-09 11:29 | 48.10473 | 10.19892 | 4988 ft | 229 kts | 319° |
| 2026-05-09 11:29 | 48.11361 | 10.17980 | 4983 ft | 226 kts | 286° |
| 2026-05-09 11:29 | 48.11413 | 10.15648 | 4872 ft | 229 kts | 253° |
| 2026-05-09 11:29 | 48.11045 | 10.14171 | 4810 ft | 230 kts | 246° |
| 2026-05-09 11:30 | 48.10147 | 10.11288 | 4637 ft | 229 kts | 244° |
| 2026-05-09 11:30 | 48.09466 | 10.09149 | 4498 ft | 226 kts | 244° |
| 2026-05-09 11:30 | 48.08798 | 10.07055 | 4390 ft | 221 kts | 244° |
| 2026-05-09 11:30 | 48.08132 | 10.04981 | 4278 ft | 221 kts | 244° |
| 2026-05-09 11:31 | 48.07463 | 10.02901 | 4124 ft | 222 kts | 244° |
| 2026-05-09 11:31 | 48.06787 | 10.00801 | 4026 ft | 226 kts | 244° |
| 2026-05-09 11:31 | 48.06106 | 9.98691 | 3985 ft | 224 kts | 244° |
| 2026-05-09 11:31 | 48.05308 | 9.96709 | 3968 ft | 224 kts | 224° |
| 2026-05-09 11:32 | 48.03980 | 9.95606 | 3974 ft | 218 kts | 190° |
| 2026-05-09 11:32 | 48.02517 | 9.95756 | 4003 ft | 208 kts | 164° |
| 2026-05-09 11:32 | 48.01144 | 9.96344 | 3981 ft | 203 kts | 163° |
| 2026-05-09 11:32 | 47.99804 | 9.96914 | 3988 ft | 200 kts | 164° |
| 2026-05-09 11:33 | 47.98899 | 9.97301 | 4006 ft | 201 kts | 164° |
| 2026-05-09 11:33 | 47.97096 | 9.98076 | 4003 ft | 201 kts | 163° |
| 2026-05-09 11:33 | 47.94501 | 9.99194 | 4004 ft | 192 kts | 163° |
| 2026-05-09 11:34 | 47.93210 | 9.99750 | 4005 ft | 191 kts | 163° |
| 2026-05-09 11:34 | 47.91950 | 10.00292 | 4001 ft | 192 kts | 163° |
| 2026-05-09 11:34 | 47.90643 | 10.00854 | 3993 ft | 192 kts | 163° |
| 2026-05-09 11:34 | 47.89431 | 10.01633 | 3977 ft | 191 kts | 139° |
| 2026-05-09 11:35 | 47.88763 | 10.03290 | 3994 ft | 189 kts | 99° |
| 2026-05-09 11:35 | 47.88961 | 10.05181 | 3995 ft | 189 kts | 60° |
| 2026-05-09 11:35 | 47.89900 | 10.06522 | 4013 ft | 189 kts | 33° |
| 2026-05-09 11:35 | 47.90992 | 10.07593 | 4007 ft | 191 kts | 34° |
| 2026-05-09 11:36 | 47.92108 | 10.08701 | 4005 ft | 193 kts | 34° |
| 2026-05-09 11:36 | 47.92844 | 10.09442 | 4002 ft | 193 kts | 37° |
| 2026-05-09 11:36 | 47.93923 | 10.11443 | 3817 ft | 181 kts | 60° |
| 2026-05-09 11:36 | 47.94562 | 10.13033 | 3581 ft | 176 kts | 59° |
| 2026-05-09 11:37 | 47.95178 | 10.14584 | 3358 ft | 171 kts | 59° |
| 2026-05-09 11:37 | 47.95570 | 10.15578 | 3202 ft | 166 kts | 59° |
| 2026-05-09 11:37 | 47.96327 | 10.17495 | 2953 ft | 150 kts | 59° |
| 2026-05-09 11:37 | 47.96679 | 10.18387 | 2775 ft | 152 kts | 60° |
| 2026-05-09 11:38 | 47.97390 | 10.20186 | 2486 ft | 148 kts | 60° |
| 2026-05-09 11:38 | 47.97912 | 10.21495 | 2300 ft | 146 kts | 60° |
| 2026-05-09 11:38 | 47.98425 | 10.22792 | 2103 ft | 144 kts | 60° |
| 2026-05-09 11:38 | 47.98889 | 10.23977 | 2072 ft | 114 kts | 59° |
| 2026-05-09 11:39 | 47.99196 | 10.24726 | 2066 ft | 40 kts | 57° |
| 2026-05-09 11:39 | 47.99228 | 10.24872 | 2065 ft | 5 kts | 111° |
| 2026-05-09 11:39 | 47.99202 | 10.24911 | 2065 ft | 6 kts | 149° |
| 2026-05-09 11:40 | 47.99190 | 10.24918 | 2064 ft | 6 kts | 164° |